LGRP/RHO METAR and TAF weather

Enter ICAO airport designator
Station Type Date Time Source
LGRP METAR 2019/05/26 23:50 UTC NOAA

LGRP 262350Z 24004KT 9999 FEW025 20/14 Q1013 NOSIG


Station Type Date Time Source
LGRP Decoded METAR 2019/05/26 23:50 UTC NOAA

Rhodes Airport , Greece (LGRP) 36-24N 028-05E 11M
May 26, 2019 - 07:50 PM EDT / 2019.05.26 2350 UTC
Wind: from the WSW (240 degrees) at 5 MPH (4 KT):0
Visibility: greater than 7 mile(s):0
Sky conditions: mostly clear
Temperature: 68 F (20 C)
Dew Point: 57 F (14 C)
Relative Humidity: 68%
Pressure (altimeter): 29.91 in. Hg (1013 hPa)
ob: LGRP 262350Z 24004KT 9999 FEW025 20/14 Q1013 NOSIG
cycle: 0

Station Type Date Time Source
LGRP TAF 2019/05/26 18:12 UTC NOAA

TAF LGRP 261700Z 2618/2718 26015KT 9999 FEW020

Example: see airport list